createdAt,value
2022-09-07T00:00:02.425Z,24.5
2022-09-07T00:02:02.152Z,24.4
2022-09-07T00:04:03.440Z,24.4
2022-09-07T00:06:06.582Z,24.4
2022-09-07T00:08:02.593Z,24.4
2022-09-07T00:10:02.155Z,24.3
2022-09-07T00:12:02.450Z,24.2
2022-09-07T00:14:02.172Z,24.2
2022-09-07T00:16:07.134Z,24.1
2022-09-07T00:18:02.114Z,24.1
2022-09-07T00:20:02.801Z,24.1
2022-09-07T00:22:02.146Z,24.0
2022-09-07T00:24:03.024Z,23.9
2022-09-07T00:26:04.495Z,23.9
2022-09-07T00:28:03.540Z,23.8
2022-09-07T00:30:02.201Z,23.8
2022-09-07T00:32:02.407Z,23.8
2022-09-07T00:34:02.918Z,23.8
2022-09-07T00:36:03.160Z,23.8
2022-09-07T00:38:02.140Z,23.8
2022-09-07T00:40:03.012Z,23.7
2022-09-07T00:42:02.138Z,23.7
2022-09-07T00:44:21.504Z,23.7
2022-09-07T00:46:04.086Z,23.7
2022-09-07T00:48:07.143Z,23.6
2022-09-07T00:50:10.226Z,23.6
2022-09-07T00:52:07.557Z,23.6
2022-09-07T00:54:07.658Z,23.4
2022-09-07T00:56:03.526Z,23.4
2022-09-07T00:58:03.451Z,23.4
2022-09-07T01:00:02.726Z,23.4
2022-09-07T01:02:03.596Z,23.3
2022-09-07T01:04:03.578Z,23.3
2022-09-07T01:06:08.773Z,23.3
2022-09-07T01:08:02.884Z,23.2
2022-09-07T01:10:02.596Z,23.2
2022-09-07T01:12:04.238Z,23.1
2022-09-07T01:14:04.841Z,23.1
2022-09-07T01:16:10.022Z,23.1
2022-09-07T01:18:10.928Z,23.0
2022-09-07T01:20:21.261Z,22.9
2022-09-07T01:22:19.671Z,22.9
2022-09-07T01:24:21.231Z,22.9
2022-09-07T01:26:21.464Z,22.8
2022-09-07T01:28:10.659Z,22.7
2022-09-07T01:30:06.040Z,22.7
2022-09-07T01:32:13.630Z,22.6
2022-09-07T01:34:10.308Z,22.6
2022-09-07T01:36:15.749Z,22.5
2022-09-07T01:38:10.738Z,22.4
2022-09-07T01:40:09.513Z,22.4
2022-09-07T01:42:08.565Z,22.3
2022-09-07T01:44:07.997Z,22.3
2022-09-07T01:46:04.498Z,22.3
2022-09-07T01:48:06.942Z,22.2
2022-09-07T01:50:09.410Z,22.2
2022-09-07T01:52:07.430Z,22.1
2022-09-07T01:54:09.168Z,21.9
2022-09-07T01:56:07.371Z,21.9
2022-09-07T01:58:08.846Z,21.8
2022-09-07T02:00:07.714Z,21.7
2022-09-07T02:02:07.326Z,21.6
2022-09-07T02:04:10.322Z,21.5
2022-09-07T02:06:10.078Z,21.4
2022-09-07T02:08:08.107Z,21.4
2022-09-07T02:10:08.691Z,21.2
2022-09-07T02:12:11.054Z,21.1
2022-09-07T02:14:09.446Z,21.1
2022-09-07T02:16:07.471Z,21.0
2022-09-07T02:18:05.713Z,20.9
2022-09-07T02:20:10.610Z,20.8
2022-09-07T02:22:09.734Z,20.8
2022-09-07T02:24:06.524Z,20.7
2022-09-07T02:26:05.882Z,20.7
2022-09-07T02:28:08.322Z,20.6
2022-09-07T02:30:02.950Z,20.5
2022-09-07T02:32:02.587Z,20.4
2022-09-07T02:34:02.135Z,20.3
2022-09-07T02:36:04.804Z,20.2
2022-09-07T02:38:04.972Z,20.2
2022-09-07T02:40:03.410Z,20.1
2022-09-07T02:42:03.307Z,20.0
2022-09-07T02:44:07.164Z,19.9
2022-09-07T02:46:15.961Z,19.8
2022-09-07T02:48:14.961Z,19.7
2022-09-07T02:50:21.267Z,19.7
2022-09-07T02:52:15.243Z,19.6
2022-09-07T02:54:16.684Z,19.5
2022-09-07T02:56:12.581Z,19.4
2022-09-07T02:58:15.243Z,19.3
2022-09-07T03:00:09.177Z,19.3
2022-09-07T03:02:08.045Z,19.2
2022-09-07T03:04:12.304Z,19.1
2022-09-07T03:06:08.065Z,19.0
2022-09-07T03:08:07.332Z,18.9
2022-09-07T03:10:07.216Z,18.9
2022-09-07T03:12:03.751Z,18.8
2022-09-07T03:14:12.956Z,18.7
2022-09-07T03:16:03.230Z,18.7
2022-09-07T03:18:02.197Z,18.6
2022-09-07T03:20:03.070Z,18.5
2022-09-07T03:22:02.510Z,18.4
2022-09-07T03:24:02.892Z,18.4
2022-09-07T03:26:02.365Z,18.3
2022-09-07T03:28:03.264Z,18.3
2022-09-07T03:30:03.885Z,18.2
2022-09-07T03:32:02.308Z,18.2
2022-09-07T03:34:03.199Z,18.1
2022-09-07T03:36:02.325Z,18.1
2022-09-07T03:38:02.283Z,18.0
2022-09-07T03:40:02.989Z,17.9
2022-09-07T03:42:02.245Z,17.9
2022-09-07T03:44:04.712Z,17.8
2022-09-07T03:46:04.981Z,17.8
2022-09-07T03:48:02.311Z,17.7
2022-09-07T03:50:02.314Z,17.7
2022-09-07T03:52:03.699Z,17.6
2022-09-07T03:54:02.205Z,17.6
2022-09-07T03:56:04.793Z,17.4
2022-09-07T03:58:02.159Z,17.4
2022-09-07T04:00:03.047Z,17.4
2022-09-07T04:02:03.039Z,17.3
2022-09-07T04:04:03.526Z,17.3
2022-09-07T04:06:02.869Z,17.2
2022-09-07T04:08:02.625Z,17.2
2022-09-07T04:10:02.231Z,17.2
2022-09-07T04:12:02.674Z,17.2
2022-09-07T04:14:02.228Z,17.1
2022-09-07T04:16:09.466Z,17.1
2022-09-07T04:18:02.173Z,17.0
2022-09-07T04:20:04.186Z,16.9
2022-09-07T04:22:02.147Z,16.9
2022-09-07T04:24:02.610Z,16.9
2022-09-07T04:26:02.242Z,16.8
2022-09-07T04:28:04.583Z,16.8
2022-09-07T04:30:02.139Z,16.8
2022-09-07T04:32:02.493Z,16.7
2022-09-07T04:34:04.199Z,16.7
2022-09-07T04:36:03.709Z,16.7
2022-09-07T04:38:02.152Z,16.7
2022-09-07T04:40:02.609Z,16.7
2022-09-07T04:42:02.126Z,16.6
2022-09-07T04:44:04.674Z,16.6
2022-09-07T04:46:04.159Z,16.6
2022-09-07T04:48:02.344Z,16.5
2022-09-07T04:50:02.912Z,16.5
2022-09-07T04:52:02.985Z,16.5
2022-09-07T04:54:03.543Z,16.4
2022-09-07T04:56:03.009Z,16.4
2022-09-07T04:58:02.282Z,16.3
2022-09-07T05:00:02.452Z,16.3
2022-09-07T05:02:03.026Z,16.3
2022-09-07T05:04:04.784Z,16.3
2022-09-07T05:06:03.663Z,16.2
2022-09-07T05:08:02.353Z,16.2
2022-09-07T05:10:02.206Z,16.1
2022-09-07T05:12:03.281Z,16.1
2022-09-07T05:14:04.512Z,16.1
2022-09-07T05:16:08.603Z,16.0
2022-09-07T05:18:02.140Z,16.0
2022-09-07T05:20:02.437Z,15.9
2022-09-07T05:22:02.660Z,15.9
2022-09-07T05:24:03.768Z,15.8
2022-09-07T05:26:03.540Z,15.8
2022-09-07T05:28:03.741Z,15.8
2022-09-07T05:30:03.583Z,15.7
2022-09-07T05:32:02.350Z,15.7
2022-09-07T05:34:32.031Z,15.6
2022-09-07T05:36:04.166Z,15.6
2022-09-07T05:38:02.182Z,15.5
2022-09-07T05:40:03.758Z,15.4
2022-09-07T05:42:03.190Z,15.4
2022-09-07T05:46:02.187Z,15.3
2022-09-07T05:48:03.052Z,15.3
2022-09-07T05:50:02.153Z,15.3
2022-09-07T05:52:02.745Z,15.2
2022-09-07T05:54:02.112Z,15.2
2022-09-07T05:56:06.540Z,15.2
2022-09-07T05:58:02.100Z,15.1
2022-09-07T06:00:02.738Z,15.1
2022-09-07T06:02:02.467Z,15.1
2022-09-07T06:04:03.411Z,15.0
2022-09-07T06:06:02.686Z,15.0
2022-09-07T06:08:03.199Z,14.9
2022-09-07T06:12:04.907Z,14.9
2022-09-07T06:14:02.652Z,14.9
2022-09-07T06:16:03.494Z,14.9
2022-09-07T06:18:02.198Z,14.9
2022-09-07T06:20:03.424Z,14.8
2022-09-07T06:22:02.152Z,14.8
2022-09-07T06:24:03.225Z,14.8
2022-09-07T06:26:02.197Z,14.8
2022-09-07T06:28:03.187Z,14.8
2022-09-07T06:30:02.263Z,14.8
2022-09-07T06:34:02.200Z,14.7
2022-09-07T06:36:04.481Z,14.7
2022-09-07T06:38:02.148Z,14.7
2022-09-07T06:40:02.807Z,14.7
2022-09-07T06:42:03.375Z,14.6
2022-09-07T06:44:02.393Z,14.5
2022-09-07T06:48:02.277Z,14.4
2022-09-07T06:50:02.154Z,14.3
2022-09-07T06:52:03.368Z,14.3
2022-09-07T06:56:06.464Z,14.2
2022-09-07T06:58:02.635Z,14.1
2022-09-07T07:00:02.340Z,14.1
2022-09-07T07:02:02.208Z,14.1
2022-09-07T07:04:02.782Z,14.1
2022-09-07T07:06:02.123Z,14.1
2022-09-07T07:08:02.305Z,14.1
2022-09-07T07:10:02.137Z,14.1
2022-09-07T07:12:02.305Z,14.0
2022-09-07T07:14:02.329Z,13.9
2022-09-07T07:16:03.683Z,13.9
2022-09-07T07:18:13.696Z,13.9
2022-09-07T07:20:02.402Z,13.9
2022-09-07T07:22:14.461Z,13.9
2022-09-07T07:24:07.541Z,13.9
2022-09-07T07:26:02.544Z,13.8
2022-09-07T07:30:02.168Z,13.8
2022-09-07T07:32:04.074Z,13.8
2022-09-07T07:34:03.292Z,13.8
2022-09-07T07:36:12.354Z,13.8
2022-09-07T07:40:20.400Z,13.8
2022-09-07T07:42:03.462Z,13.7
2022-09-07T07:44:02.829Z,13.7
2022-09-07T07:46:05.624Z,13.7
2022-09-07T07:48:02.362Z,13.7
2022-09-07T07:50:32.851Z,13.7
2022-09-07T07:54:02.226Z,13.7
2022-09-07T07:56:03.664Z,13.7
2022-09-07T07:58:02.116Z,13.7
2022-09-07T08:00:02.507Z,13.7
2022-09-07T08:02:04.385Z,13.6
2022-09-07T08:04:02.589Z,13.6
2022-09-07T08:06:07.641Z,13.6
2022-09-07T08:08:02.385Z,13.6
2022-09-07T08:10:02.160Z,13.6
2022-09-07T08:12:03.124Z,13.6
2022-09-07T08:14:05.567Z,13.6
2022-09-07T08:16:05.055Z,13.6
2022-09-07T08:18:03.340Z,13.5
2022-09-07T08:20:02.565Z,13.5
2022-09-07T08:22:03.416Z,13.5
2022-09-07T08:24:03.323Z,13.4
2022-09-07T08:26:02.416Z,13.4
2022-09-07T08:28:03.979Z,13.4
2022-09-07T08:30:03.383Z,13.4
2022-09-07T08:32:02.396Z,13.4
2022-09-07T08:34:02.219Z,13.3
2022-09-07T08:36:05.330Z,13.3
2022-09-07T08:38:02.160Z,13.3
2022-09-07T08:40:03.827Z,13.3
2022-09-07T08:42:11.213Z,13.3
2022-09-07T08:44:06.013Z,13.2
2022-09-07T08:46:11.229Z,13.2
2022-09-07T08:48:04.827Z,13.2
2022-09-07T08:50:07.209Z,13.2
2022-09-07T08:52:08.834Z,13.2
2022-09-07T08:54:02.903Z,13.2
2022-09-07T08:56:09.271Z,13.2
2022-09-07T08:58:18.043Z,13.1
2022-09-07T09:00:07.105Z,13.1
2022-09-07T09:02:36.637Z,13.1
2022-09-07T09:04:18.494Z,13.1
2022-09-07T09:06:12.027Z,13.0
2022-09-07T09:08:17.800Z,13.0
2022-09-07T09:10:16.919Z,12.9
2022-09-07T09:12:12.667Z,12.9
2022-09-07T09:14:06.245Z,12.9
2022-09-07T09:16:10.320Z,12.8
2022-09-07T09:18:16.839Z,12.8
2022-09-07T09:20:15.644Z,12.8
2022-09-07T09:22:10.231Z,12.7
2022-09-07T09:24:14.563Z,12.7
2022-09-07T09:26:07.636Z,12.7
2022-09-07T09:28:02.677Z,12.7
2022-09-07T09:30:02.182Z,12.7
2022-09-07T09:32:21.416Z,12.6
2022-09-07T09:34:12.944Z,12.6
2022-09-07T09:36:02.464Z,12.6
2022-09-07T09:38:03.167Z,12.6
2022-09-07T09:40:04.144Z,12.6
2022-09-07T09:42:16.022Z,12.6
2022-09-07T09:44:03.311Z,12.5
2022-09-07T09:46:14.576Z,12.6
2022-09-07T09:48:08.548Z,12.5
2022-09-07T09:50:06.295Z,12.5
2022-09-07T09:52:34.990Z,12.5
2022-09-07T09:54:05.997Z,12.4
2022-09-07T09:56:04.346Z,12.4
2022-09-07T10:00:08.415Z,12.4
2022-09-07T10:04:21.425Z,12.4
2022-09-07T10:06:06.809Z,12.4
2022-09-07T10:08:04.003Z,12.4
2022-09-07T10:10:02.176Z,12.4
2022-09-07T10:12:06.748Z,12.3
2022-09-07T10:14:03.969Z,12.3
2022-09-07T10:16:06.071Z,12.3
2022-09-07T10:18:05.495Z,12.3
2022-09-07T10:20:21.252Z,12.2
2022-09-07T10:22:04.531Z,12.2
2022-09-07T10:24:14.705Z,12.1
2022-09-07T10:26:20.942Z,12.1
2022-09-07T10:28:06.761Z,12.1
2022-09-07T10:30:05.902Z,12.0
2022-09-07T10:32:18.856Z,12.0
2022-09-07T10:34:27.601Z,12.0
2022-09-07T10:36:11.767Z,11.9
2022-09-07T10:38:16.235Z,11.9
2022-09-07T10:40:16.978Z,11.9
2022-09-07T10:42:15.853Z,11.9
2022-09-07T10:44:06.469Z,11.9
2022-09-07T10:46:56.343Z,11.8
2022-09-07T10:48:09.712Z,11.8
2022-09-07T10:50:23.993Z,11.8
2022-09-07T10:52:14.380Z,11.8
2022-09-07T10:54:31.785Z,11.8
2022-09-07T10:56:08.848Z,11.8
2022-09-07T10:58:12.939Z,11.8
2022-09-07T11:00:10.658Z,11.8
2022-09-07T11:02:12.845Z,11.8
2022-09-07T11:04:12.636Z,11.8
2022-09-07T11:06:14.064Z,11.8
2022-09-07T11:08:15.384Z,11.8
2022-09-07T11:10:16.623Z,11.7
2022-09-07T11:12:07.067Z,11.8
2022-09-07T11:14:13.442Z,11.7
2022-09-07T11:16:06.666Z,11.7
2022-09-07T11:18:08.563Z,11.7
2022-09-07T11:20:13.363Z,11.7
2022-09-07T11:22:09.809Z,11.7
2022-09-07T11:24:10.784Z,11.7
2022-09-07T11:26:11.560Z,11.7
2022-09-07T11:28:13.349Z,11.7
2022-09-07T11:30:06.926Z,11.7
2022-09-07T11:32:08.205Z,11.7
2022-09-07T11:34:25.167Z,11.7
2022-09-07T11:36:11.839Z,11.7
2022-09-07T11:38:12.922Z,11.7
2022-09-07T11:40:11.697Z,11.8
2022-09-07T11:44:11.582Z,11.8
2022-09-07T11:46:06.478Z,11.8
2022-09-07T11:48:11.036Z,11.7
2022-09-07T11:50:02.943Z,11.8
2022-09-07T11:52:06.851Z,11.7
2022-09-07T11:54:14.827Z,11.8
2022-09-07T11:56:07.089Z,11.8
2022-09-07T11:58:21.189Z,11.8
2022-09-07T12:00:06.529Z,11.8
2022-09-07T12:02:19.054Z,11.8
2022-09-07T12:04:24.372Z,11.8
2022-09-07T12:06:21.292Z,11.8
2022-09-07T12:08:12.998Z,11.8
2022-09-07T12:10:21.207Z,11.8
2022-09-07T12:12:18.730Z,11.8
2022-09-07T12:14:17.809Z,11.8
2022-09-07T12:16:07.621Z,11.8
2022-09-07T12:18:17.115Z,11.8
2022-09-07T12:20:13.598Z,11.8
2022-09-07T12:22:02.482Z,11.8
2022-09-07T12:24:02.305Z,11.8
2022-09-07T12:26:21.387Z,11.8
2022-09-07T12:28:02.998Z,11.8
2022-09-07T12:30:22.209Z,11.8
2022-09-07T12:34:21.199Z,11.7
2022-09-07T12:36:12.572Z,11.7
2022-09-07T12:38:05.567Z,11.7
2022-09-07T12:40:21.212Z,11.7
2022-09-07T12:42:37.482Z,11.7
2022-09-07T12:44:14.496Z,11.6
2022-09-07T12:46:03.863Z,11.6
2022-09-07T12:48:10.610Z,11.6
2022-09-07T12:50:17.126Z,11.6
2022-09-07T12:52:15.675Z,11.6
2022-09-07T12:54:14.138Z,11.6
2022-09-07T12:56:16.342Z,11.6
2022-09-07T12:58:16.916Z,11.6
2022-09-07T13:00:12.050Z,11.6
2022-09-07T13:02:20.501Z,11.5
2022-09-07T13:04:21.179Z,11.5
2022-09-07T13:06:13.498Z,11.4
2022-09-07T13:08:21.309Z,11.4
2022-09-07T13:10:04.718Z,11.4
2022-09-07T13:12:52.863Z,11.4
2022-09-07T13:14:08.706Z,11.4
2022-09-07T13:16:21.468Z,11.4
2022-09-07T13:18:03.322Z,11.4
2022-09-07T13:20:16.044Z,11.4
2022-09-07T13:22:02.768Z,11.4
2022-09-07T13:24:47.120Z,11.3
2022-09-07T13:26:04.362Z,11.3
2022-09-07T13:28:04.406Z,11.3
2022-09-07T13:30:22.090Z,11.3
2022-09-07T13:32:10.650Z,11.3
2022-09-07T13:34:21.919Z,11.3
2022-09-07T13:36:04.639Z,11.3
2022-09-07T13:38:07.643Z,11.2
2022-09-07T13:40:09.066Z,11.2
2022-09-07T13:42:02.655Z,11.2
2022-09-07T13:44:04.470Z,11.2
2022-09-07T13:46:12.450Z,11.2
2022-09-07T13:48:14.751Z,11.2
2022-09-07T13:50:15.238Z,11.3
2022-09-07T13:52:11.749Z,11.2
2022-09-07T13:54:08.799Z,11.2
2022-09-07T13:56:10.093Z,11.2
2022-09-07T13:58:14.445Z,11.3
2022-09-07T14:00:02.424Z,11.3
2022-09-07T14:02:03.227Z,11.3
2022-09-07T14:04:07.109Z,11.3
2022-09-07T14:06:16.096Z,11.3
2022-09-07T14:08:03.039Z,11.3
2022-09-07T14:10:18.993Z,11.3
2022-09-07T14:12:04.852Z,11.3
2022-09-07T14:14:13.756Z,11.3
2022-09-07T14:16:02.363Z,11.3
2022-09-07T14:18:06.222Z,11.3
2022-09-07T14:20:03.816Z,11.3
2022-09-07T14:22:06.061Z,11.3
2022-09-07T14:24:03.094Z,11.3
2022-09-07T14:26:16.600Z,11.3
2022-09-07T14:28:02.463Z,11.3
2022-09-07T14:30:16.102Z,11.4
2022-09-07T14:32:04.878Z,11.4
2022-09-07T14:34:02.771Z,11.4
2022-09-07T14:36:13.272Z,11.5
2022-09-07T14:38:11.793Z,11.6
2022-09-07T14:40:03.222Z,11.6
2022-09-07T14:42:04.291Z,11.6
2022-09-07T14:44:02.490Z,11.6
2022-09-07T14:46:17.509Z,11.6
2022-09-07T14:48:12.497Z,11.7
2022-09-07T14:50:05.419Z,11.7
2022-09-07T14:52:02.615Z,11.7
2022-09-07T14:54:05.435Z,11.7
2022-09-07T14:56:09.087Z,11.8
2022-09-07T14:58:19.277Z,11.8
2022-09-07T15:00:20.407Z,11.8
2022-09-07T15:02:14.967Z,11.8
2022-09-07T15:04:02.574Z,11.9
2022-09-07T15:06:03.930Z,11.9
2022-09-07T15:08:03.053Z,11.9
2022-09-07T15:10:13.619Z,12.0
2022-09-07T15:12:13.251Z,12.1
2022-09-07T15:14:09.512Z,12.1
2022-09-07T15:16:03.854Z,12.1
2022-09-07T15:18:08.877Z,12.2
2022-09-07T15:20:03.076Z,12.2
2022-09-07T15:22:10.611Z,12.3
2022-09-07T15:24:04.112Z,12.3
2022-09-07T15:26:02.485Z,12.4
2022-09-07T15:28:02.442Z,12.5
2022-09-07T15:30:02.793Z,12.6
2022-09-07T15:32:04.899Z,12.7
2022-09-07T15:34:04.100Z,12.8
2022-09-07T15:36:02.871Z,12.9
2022-09-07T15:38:04.667Z,13.1
2022-09-07T15:40:02.654Z,13.2
2022-09-07T15:44:02.430Z,13.4
2022-09-07T15:46:03.746Z,13.5
2022-09-07T15:48:03.588Z,13.7
2022-09-07T15:50:02.181Z,13.9
2022-09-07T15:52:06.877Z,14.1
2022-09-07T15:54:13.458Z,14.4
2022-09-07T15:56:03.335Z,14.7
2022-09-07T15:58:11.505Z,14.9
2022-09-07T16:00:02.515Z,15.1
2022-09-07T16:02:03.036Z,15.2
2022-09-07T16:04:04.591Z,15.4
2022-09-07T16:06:08.887Z,15.6
2022-09-07T16:08:26.194Z,15.7
2022-09-07T16:10:04.299Z,15.8
2022-09-07T16:14:03.807Z,16.1
2022-09-07T16:16:05.326Z,16.2
2022-09-07T16:18:02.790Z,16.3
2022-09-07T16:20:02.711Z,16.4
2022-09-07T16:22:02.714Z,16.4
2022-09-07T16:24:02.703Z,16.5
2022-09-07T16:26:06.588Z,16.6
2022-09-07T16:28:02.295Z,16.6
2022-09-07T16:30:05.196Z,16.8
2022-09-07T16:34:02.994Z,17.1
2022-09-07T16:36:05.958Z,17.3
2022-09-07T16:40:02.642Z,17.6
2022-09-07T16:42:03.368Z,17.7
2022-09-07T16:44:03.249Z,17.8
2022-09-07T16:46:04.117Z,17.8
2022-09-07T16:48:02.409Z,17.8
2022-09-07T16:50:02.179Z,17.7
2022-09-07T16:52:04.808Z,17.6
2022-09-07T16:54:03.792Z,17.6
2022-09-07T16:56:03.986Z,17.7
2022-09-07T17:00:02.869Z,18.1
2022-09-07T17:02:02.249Z,18.2
2022-09-07T17:04:05.602Z,18.4
2022-09-07T17:06:05.338Z,18.6
2022-09-07T17:08:03.338Z,18.6
2022-09-07T17:10:03.697Z,18.7
2022-09-07T17:12:02.436Z,18.7
2022-09-07T17:14:05.002Z,18.9
2022-09-07T17:16:03.230Z,18.9
2022-09-07T17:18:03.440Z,19.0
2022-09-07T17:20:02.440Z,19.1
2022-09-07T17:22:03.840Z,19.1
2022-09-07T17:24:04.847Z,19.1
2022-09-07T17:26:04.027Z,19.1
2022-09-07T17:28:02.303Z,19.1
2022-09-07T17:30:02.446Z,19.1
2022-09-07T17:32:25.784Z,19.2
2022-09-07T17:34:02.254Z,19.3
2022-09-07T17:36:02.791Z,19.3
2022-09-07T17:39:14.160Z,19.4
2022-09-07T17:40:05.263Z,19.4
2022-09-07T17:42:03.232Z,19.5
2022-09-07T17:44:02.272Z,19.5
2022-09-07T17:46:03.893Z,19.5
2022-09-07T17:48:02.290Z,19.6
2022-09-07T17:50:02.192Z,19.7
2022-09-07T17:52:03.371Z,19.7
2022-09-07T17:54:10.819Z,19.7
2022-09-07T17:56:02.937Z,19.7
2022-09-07T17:58:04.727Z,19.7
2022-09-07T18:00:11.325Z,19.7
2022-09-07T18:02:02.209Z,19.8
2022-09-07T18:04:02.897Z,19.9
2022-09-07T18:06:04.072Z,20.1
2022-09-07T18:08:04.202Z,20.1
2022-09-07T18:10:02.762Z,20.2
2022-09-07T18:12:02.385Z,20.4
2022-09-07T18:14:02.142Z,20.6
2022-09-07T18:16:09.644Z,20.8
2022-09-07T18:18:02.397Z,20.9
2022-09-07T18:20:02.499Z,21.1
2022-09-07T18:22:03.483Z,21.2
2022-09-07T18:24:05.069Z,21.2
2022-09-07T18:26:02.152Z,21.1
2022-09-07T18:30:03.209Z,21.2
2022-09-07T18:32:08.176Z,21.3
2022-09-07T18:34:02.523Z,21.2
2022-09-07T18:36:04.118Z,21.1
2022-09-07T18:38:02.196Z,21.0
2022-09-07T18:40:02.585Z,21.0
2022-09-07T18:42:02.728Z,21.0
2022-09-07T18:44:02.613Z,21.0
2022-09-07T18:46:06.506Z,21.0
2022-09-07T18:48:02.535Z,21.1
2022-09-07T18:50:02.567Z,21.1
2022-09-07T18:54:03.112Z,21.4
2022-09-07T18:56:03.447Z,21.5
2022-09-07T18:58:02.676Z,21.5
2022-09-07T19:00:04.608Z,21.5
2022-09-07T19:02:04.932Z,21.6
2022-09-07T19:04:05.982Z,21.7
2022-09-07T19:06:05.684Z,21.8
2022-09-07T19:08:03.629Z,22.0
2022-09-07T19:10:05.826Z,22.1
2022-09-07T19:12:02.340Z,22.1
2022-09-07T19:14:04.003Z,22.1
2022-09-07T19:16:04.087Z,22.2
2022-09-07T19:18:04.512Z,22.1
2022-09-07T19:20:02.389Z,22.1
2022-09-07T19:22:02.819Z,22.1
2022-09-07T19:24:04.515Z,22.2
2022-09-07T19:26:04.706Z,22.2
2022-09-07T19:28:02.211Z,22.2
2022-09-07T19:30:02.475Z,22.2
2022-09-07T19:32:04.008Z,22.3
2022-09-07T19:34:02.734Z,22.4
2022-09-07T19:36:05.207Z,22.6
2022-09-07T19:38:02.154Z,22.6
2022-09-07T19:40:02.508Z,22.7
2022-09-07T19:42:04.751Z,22.7
2022-09-07T19:44:02.433Z,22.8
2022-09-07T19:46:02.269Z,22.9
2022-09-07T19:48:02.877Z,23.1
2022-09-07T19:50:02.332Z,23.1
2022-09-07T19:52:02.252Z,22.9
2022-09-07T19:54:02.344Z,23.1
2022-09-07T19:56:04.215Z,23.1
2022-09-07T19:58:02.141Z,23.1
2022-09-07T20:00:02.682Z,23.1
2022-09-07T20:02:02.747Z,23.1
2022-09-07T20:04:04.726Z,23.2
2022-09-07T20:06:07.274Z,23.3
2022-09-07T20:08:03.289Z,23.3
2022-09-07T20:10:02.152Z,23.4
2022-09-07T20:12:03.362Z,23.6
2022-09-07T20:14:03.055Z,23.8
2022-09-07T20:16:05.217Z,23.7
2022-09-07T20:18:02.275Z,23.7
2022-09-07T20:20:02.373Z,23.6
2022-09-07T20:22:02.154Z,23.5
2022-09-07T20:24:02.427Z,23.4
2022-09-07T20:26:04.600Z,23.3
2022-09-07T20:28:02.920Z,23.3
2022-09-07T20:30:02.346Z,23.4
2022-09-07T20:32:02.428Z,23.4
2022-09-07T20:34:02.106Z,23.4
2022-09-07T20:36:04.276Z,23.4
2022-09-07T20:38:02.292Z,23.6
2022-09-07T20:40:02.552Z,23.7
2022-09-07T20:42:02.690Z,23.8
2022-09-07T20:44:05.214Z,23.9
2022-09-07T20:46:02.144Z,24.0
2022-09-07T20:48:02.851Z,24.1
2022-09-07T20:50:02.180Z,24.1
2022-09-07T20:52:03.075Z,24.0
2022-09-07T20:54:02.447Z,24.1
2022-09-07T20:56:05.948Z,24.1
2022-09-07T20:58:02.408Z,24.2
2022-09-07T21:00:02.626Z,24.3
2022-09-07T21:02:02.319Z,24.2
2022-09-07T21:04:03.601Z,24.0
2022-09-07T21:06:03.479Z,23.9
2022-09-07T21:08:02.464Z,23.9
2022-09-07T21:10:06.615Z,23.8
2022-09-07T21:12:02.658Z,23.8
2022-09-07T21:14:05.671Z,23.8
2022-09-07T21:16:05.114Z,23.8
2022-09-07T21:18:03.064Z,23.8
2022-09-07T21:20:02.463Z,23.8
2022-09-07T21:22:02.169Z,23.7
2022-09-07T21:24:03.693Z,23.6
2022-09-07T21:26:03.604Z,23.6
2022-09-07T21:28:02.325Z,23.5
2022-09-07T21:30:03.722Z,23.5
2022-09-07T21:32:02.867Z,23.4
2022-09-07T21:34:02.593Z,23.3
2022-09-07T21:36:04.986Z,23.3
2022-09-07T21:38:03.050Z,23.3
2022-09-07T21:40:06.297Z,23.3
2022-09-07T21:42:02.096Z,23.3
2022-09-07T21:44:04.222Z,23.3
2022-09-07T21:46:08.151Z,23.3
2022-09-07T21:48:02.338Z,23.3
2022-09-07T21:50:02.443Z,23.3
2022-09-07T21:52:02.574Z,23.3
2022-09-07T21:54:02.183Z,23.3
2022-09-07T21:56:05.164Z,23.3
2022-09-07T21:58:02.302Z,23.3
2022-09-07T22:00:02.538Z,23.3
2022-09-07T22:02:02.896Z,23.3
2022-09-07T22:04:04.606Z,23.4
2022-09-07T22:06:02.870Z,23.5
2022-09-07T22:08:02.510Z,23.6
2022-09-07T22:10:02.796Z,23.7
2022-09-07T22:12:03.026Z,23.7
2022-09-07T22:14:04.087Z,23.7
2022-09-07T22:16:03.646Z,23.8
2022-09-07T22:18:02.121Z,23.7
2022-09-07T22:20:02.597Z,23.7
2022-09-07T22:22:02.137Z,23.7
2022-09-07T22:24:05.533Z,23.6
2022-09-07T22:26:02.186Z,23.6
2022-09-07T22:28:03.455Z,23.5
2022-09-07T22:30:02.894Z,23.5
2022-09-07T22:32:02.475Z,23.4
2022-09-07T22:34:04.741Z,23.4
2022-09-07T22:36:11.396Z,23.4
2022-09-07T22:38:02.120Z,23.4
2022-09-07T22:40:02.854Z,23.3
2022-09-07T22:42:02.308Z,23.3
2022-09-07T22:44:02.342Z,23.2
2022-09-07T22:46:02.338Z,23.3
2022-09-07T22:48:02.378Z,23.2
2022-09-07T22:50:02.186Z,23.2
2022-09-07T22:52:02.615Z,23.2
2022-09-07T22:54:02.142Z,23.2
2022-09-07T22:56:07.176Z,23.3
2022-09-07T22:58:02.104Z,23.3
2022-09-07T23:00:02.566Z,23.3
2022-09-07T23:02:02.594Z,23.3
2022-09-07T23:04:04.137Z,23.3
2022-09-07T23:06:03.164Z,23.3
2022-09-07T23:08:02.447Z,23.3
2022-09-07T23:10:02.294Z,23.3
2022-09-07T23:12:02.457Z,23.3
2022-09-07T23:14:06.111Z,23.3
2022-09-07T23:16:05.593Z,23.3
2022-09-07T23:18:02.188Z,23.3
2022-09-07T23:20:02.523Z,23.3
2022-09-07T23:22:02.116Z,23.3
2022-09-07T23:24:03.237Z,23.3
2022-09-07T23:26:03.341Z,23.3
2022-09-07T23:28:03.099Z,23.3
2022-09-07T23:30:02.112Z,23.2
2022-09-07T23:32:02.307Z,23.2
2022-09-07T23:34:03.364Z,23.2
2022-09-07T23:36:05.072Z,23.2
2022-09-07T23:38:02.886Z,23.2
2022-09-07T23:40:04.921Z,23.2
2022-09-07T23:42:02.149Z,23.2
2022-09-07T23:44:02.335Z,23.2
2022-09-07T23:46:02.363Z,23.2
2022-09-07T23:48:02.599Z,23.2
2022-09-07T23:50:02.176Z,23.2
2022-09-07T23:52:02.560Z,23.2
2022-09-07T23:54:02.121Z,23.2
2022-09-07T23:56:02.310Z,23.1
2022-09-07T23:58:02.123Z,23.1
